sensor_id;sensor_type;location;lat;lon;timestamp;temperature;humidity
851;DHT22;412;51.400;7.480;2022-07-15T00:02:23;19.50;92.50
851;DHT22;412;51.400;7.480;2022-07-15T00:04:49;19.50;92.60
851;DHT22;412;51.400;7.480;2022-07-15T00:07:15;19.40;92.70
851;DHT22;412;51.400;7.480;2022-07-15T00:09:42;19.40;93.20
851;DHT22;412;51.400;7.480;2022-07-15T00:12:26;19.40;93.40
851;DHT22;412;51.400;7.480;2022-07-15T00:14:52;19.30;94.00
851;DHT22;412;51.400;7.480;2022-07-15T00:17:18;19.30;93.90
851;DHT22;412;51.400;7.480;2022-07-15T00:19:43;19.30;93.70
851;DHT22;412;51.400;7.480;2022-07-15T00:22:09;19.30;94.10
851;DHT22;412;51.400;7.480;2022-07-15T00:24:35;19.20;94.00
851;DHT22;412;51.400;7.480;2022-07-15T00:27:01;19.20;94.20
851;DHT22;412;51.400;7.480;2022-07-15T00:29:28;19.20;95.00
851;DHT22;412;51.400;7.480;2022-07-15T00:31:54;19.20;94.80
851;DHT22;412;51.400;7.480;2022-07-15T00:34:21;19.20;95.00
851;DHT22;412;51.400;7.480;2022-07-15T00:36:47;19.20;95.50
851;DHT22;412;51.400;7.480;2022-07-15T00:39:14;19.20;95.30
851;DHT22;412;51.400;7.480;2022-07-15T00:41:41;19.20;95.70
851;DHT22;412;51.400;7.480;2022-07-15T00:44:08;19.30;95.50
851;DHT22;412;51.400;7.480;2022-07-15T00:46:35;19.30;95.70
851;DHT22;412;51.400;7.480;2022-07-15T00:49:03;19.30;96.00
851;DHT22;412;51.400;7.480;2022-07-15T00:51:45;19.30;95.90
851;DHT22;412;51.400;7.480;2022-07-15T00:54:13;19.30;95.80
851;DHT22;412;51.400;7.480;2022-07-15T00:56:46;19.30;96.30
851;DHT22;412;51.400;7.480;2022-07-15T00:59:13;19.30;96.90
851;DHT22;412;51.400;7.480;2022-07-15T01:01:41;19.30;96.10
851;DHT22;412;51.400;7.480;2022-07-15T01:04:07;19.30;96.40
851;DHT22;412;51.400;7.480;2022-07-15T01:06:34;19.30;97.80
851;DHT22;412;51.400;7.480;2022-07-15T01:09:05;19.20;97.20
851;DHT22;412;51.400;7.480;2022-07-15T01:11:31;19.30;97.40
851;DHT22;412;51.400;7.480;2022-07-15T01:13:58;19.30;97.50
851;DHT22;412;51.400;7.480;2022-07-15T01:16:25;19.30;98.40
851;DHT22;412;51.400;7.480;2022-07-15T01:18:51;19.30;98.90
851;DHT22;412;51.400;7.480;2022-07-15T01:21:17;19.40;97.80
851;DHT22;412;51.400;7.480;2022-07-15T01:23:43;19.40;98.80
851;DHT22;412;51.400;7.480;2022-07-15T01:26:10;19.40;98.20
851;DHT22;412;51.400;7.480;2022-07-15T01:28:37;19.50;96.90
851;DHT22;412;51.400;7.480;2022-07-15T01:31:03;19.50;97.10
851;DHT22;412;51.400;7.480;2022-07-15T01:33:29;19.50;97.60
851;DHT22;412;51.400;7.480;2022-07-15T01:35:56;19.50;97.60
851;DHT22;412;51.400;7.480;2022-07-15T01:38:22;19.50;97.10
851;DHT22;412;51.400;7.480;2022-07-15T01:40:47;19.50;96.60
851;DHT22;412;51.400;7.480;2022-07-15T01:43:13;19.50;98.00
851;DHT22;412;51.400;7.480;2022-07-15T01:45:42;19.50;96.60
851;DHT22;412;51.400;7.480;2022-07-15T01:48:09;19.50;96.20
851;DHT22;412;51.400;7.480;2022-07-15T01:50:56;19.50;97.30
851;DHT22;412;51.400;7.480;2022-07-15T01:53:23;19.50;97.50
851;DHT22;412;51.400;7.480;2022-07-15T01:55:49;19.50;98.50
851;DHT22;412;51.400;7.480;2022-07-15T01:58:15;19.40;99.70
851;DHT22;412;51.400;7.480;2022-07-15T02:00:41;19.40;96.50
851;DHT22;412;51.400;7.480;2022-07-15T02:03:07;19.40;96.90
851;DHT22;412;51.400;7.480;2022-07-15T02:05:34;19.40;97.20
851;DHT22;412;51.400;7.480;2022-07-15T02:08:00;19.40;96.40
851;DHT22;412;51.400;7.480;2022-07-15T02:10:26;19.40;98.10
851;DHT22;412;51.400;7.480;2022-07-15T02:13:12;19.40;97.60
851;DHT22;412;51.400;7.480;2022-07-15T02:15:39;19.40;96.60
851;DHT22;412;51.400;7.480;2022-07-15T02:18:06;19.40;97.40
851;DHT22;412;51.400;7.480;2022-07-15T02:20:32;19.40;98.70
851;DHT22;412;51.400;7.480;2022-07-15T02:22:58;19.40;99.10
851;DHT22;412;51.400;7.480;2022-07-15T02:25:25;19.40;98.10
851;DHT22;412;51.400;7.480;2022-07-15T02:27:55;19.40;97.70
851;DHT22;412;51.400;7.480;2022-07-15T02:30:29;19.50;98.20
851;DHT22;412;51.400;7.480;2022-07-15T02:32:56;19.50;97.20
851;DHT22;412;51.400;7.480;2022-07-15T02:35:23;19.40;97.80
851;DHT22;412;51.400;7.480;2022-07-15T02:37:52;19.40;97.80
851;DHT22;412;51.400;7.480;2022-07-15T02:40:17;19.50;97.90
851;DHT22;412;51.400;7.480;2022-07-15T02:42:47;19.40;97.10
851;DHT22;412;51.400;7.480;2022-07-15T02:45:14;19.40;97.80
851;DHT22;412;51.400;7.480;2022-07-15T02:47:40;19.40;97.20
851;DHT22;412;51.400;7.480;2022-07-15T02:50:05;19.30;98.10
851;DHT22;412;51.400;7.480;2022-07-15T02:52:31;19.20;98.30
851;DHT22;412;51.400;7.480;2022-07-15T02:54:57;19.20;98.30
851;DHT22;412;51.400;7.480;2022-07-15T02:57:24;19.30;98.00
851;DHT22;412;51.400;7.480;2022-07-15T02:59:49;19.20;96.70
851;DHT22;412;51.400;7.480;2022-07-15T03:02:15;19.30;96.70
851;DHT22;412;51.400;7.480;2022-07-15T03:04:41;19.30;97.20
851;DHT22;412;51.400;7.480;2022-07-15T03:07:06;19.20;96.70
851;DHT22;412;51.400;7.480;2022-07-15T03:09:32;19.20;97.20
851;DHT22;412;51.400;7.480;2022-07-15T03:11:58;19.10;97.00
851;DHT22;412;51.400;7.480;2022-07-15T03:14:26;19.10;97.00
851;DHT22;412;51.400;7.480;2022-07-15T03:16:52;19.10;96.80
851;DHT22;412;51.400;7.480;2022-07-15T03:19:18;19.10;97.30
851;DHT22;412;51.400;7.480;2022-07-15T03:21:45;19.00;96.60
851;DHT22;412;51.400;7.480;2022-07-15T03:24:11;19.00;96.30
851;DHT22;412;51.400;7.480;2022-07-15T03:26:38;19.00;96.50
851;DHT22;412;51.400;7.480;2022-07-15T03:29:04;18.90;96.50
851;DHT22;412;51.400;7.480;2022-07-15T03:31:30;18.90;96.40
851;DHT22;412;51.400;7.480;2022-07-15T03:33:59;18.90;97.60
851;DHT22;412;51.400;7.480;2022-07-15T03:36:25;18.90;97.30
851;DHT22;412;51.400;7.480;2022-07-15T03:38:51;18.90;97.50
851;DHT22;412;51.400;7.480;2022-07-15T03:41:20;18.90;97.20
851;DHT22;412;51.400;7.480;2022-07-15T03:43:46;18.90;96.90
851;DHT22;412;51.400;7.480;2022-07-15T03:46:12;18.80;97.50
851;DHT22;412;51.400;7.480;2022-07-15T03:48:41;18.70;97.00
851;DHT22;412;51.400;7.480;2022-07-15T03:51:07;18.70;97.30
851;DHT22;412;51.400;7.480;2022-07-15T03:53:33;18.70;97.30
851;DHT22;412;51.400;7.480;2022-07-15T03:55:59;18.60;97.00
851;DHT22;412;51.400;7.480;2022-07-15T03:58:24;18.60;96.60
851;DHT22;412;51.400;7.480;2022-07-15T04:00:50;18.50;97.60
851;DHT22;412;51.400;7.480;2022-07-15T04:03:16;18.50;97.10
851;DHT22;412;51.400;7.480;2022-07-15T04:05:42;18.40;97.00
851;DHT22;412;51.400;7.480;2022-07-15T04:08:08;18.40;97.20
851;DHT22;412;51.400;7.480;2022-07-15T04:10:34;18.40;97.80
851;DHT22;412;51.400;7.480;2022-07-15T04:13:00;18.40;97.70
851;DHT22;412;51.400;7.480;2022-07-15T04:15:28;18.40;98.00
851;DHT22;412;51.400;7.480;2022-07-15T04:17:54;18.40;97.80
851;DHT22;412;51.400;7.480;2022-07-15T04:20:20;18.30;97.90
851;DHT22;412;51.400;7.480;2022-07-15T04:22:48;18.40;98.80
851;DHT22;412;51.400;7.480;2022-07-15T04:25:17;18.50;98.70
851;DHT22;412;51.400;7.480;2022-07-15T04:27:43;18.80;97.90
851;DHT22;412;51.400;7.480;2022-07-15T04:30:09;19.10;98.30
851;DHT22;412;51.400;7.480;2022-07-15T04:32:36;19.20;98.30
851;DHT22;412;51.400;7.480;2022-07-15T04:35:02;19.50;99.90
851;DHT22;412;51.400;7.480;2022-07-15T04:37:28;19.70;97.70
851;DHT22;412;51.400;7.480;2022-07-15T04:39:55;19.90;99.90
851;DHT22;412;51.400;7.480;2022-07-15T04:42:21;20.10;99.90
851;DHT22;412;51.400;7.480;2022-07-15T04:44:47;20.20;97.10
851;DHT22;412;51.400;7.480;2022-07-15T04:47:14;20.50;99.10
851;DHT22;412;51.400;7.480;2022-07-15T04:49:40;20.70;97.70
851;DHT22;412;51.400;7.480;2022-07-15T04:52:24;20.90;96.10
851;DHT22;412;51.400;7.480;2022-07-15T04:54:53;20.90;94.00
851;DHT22;412;51.400;7.480;2022-07-15T04:57:20;20.90;96.10
851;DHT22;412;51.400;7.480;2022-07-15T04:59:47;21.00;96.70
851;DHT22;412;51.400;7.480;2022-07-15T05:02:12;21.10;96.70
851;DHT22;412;51.400;7.480;2022-07-15T05:04:39;21.10;93.80
851;DHT22;412;51.400;7.480;2022-07-15T05:07:05;21.00;93.10
851;DHT22;412;51.400;7.480;2022-07-15T05:09:31;20.80;92.70
851;DHT22;412;51.400;7.480;2022-07-15T05:11:57;20.90;96.30
851;DHT22;412;51.400;7.480;2022-07-15T05:14:23;20.90;93.00
851;DHT22;412;51.400;7.480;2022-07-15T05:16:49;20.80;92.10
851;DHT22;412;51.400;7.480;2022-07-15T05:19:15;20.60;92.20
851;DHT22;412;51.400;7.480;2022-07-15T05:21:41;20.30;92.80
851;DHT22;412;51.400;7.480;2022-07-15T05:24:07;20.10;93.10
851;DHT22;412;51.400;7.480;2022-07-15T05:26:33;19.90;93.00
851;DHT22;412;51.400;7.480;2022-07-15T05:28:59;19.80;93.40
851;DHT22;412;51.400;7.480;2022-07-15T05:31:24;19.60;93.70
851;DHT22;412;51.400;7.480;2022-07-15T05:33:50;19.50;94.40
851;DHT22;412;51.400;7.480;2022-07-15T05:36:18;19.30;94.70
851;DHT22;412;51.400;7.480;2022-07-15T05:38:44;19.20;94.40
851;DHT22;412;51.400;7.480;2022-07-15T05:41:11;19.10;95.30
851;DHT22;412;51.400;7.480;2022-07-15T05:43:37;19.00;95.00
851;DHT22;412;51.400;7.480;2022-07-15T05:46:03;18.90;95.10
851;DHT22;412;51.400;7.480;2022-07-15T05:48:30;18.90;95.60
851;DHT22;412;51.400;7.480;2022-07-15T05:50:55;18.90;95.90
851;DHT22;412;51.400;7.480;2022-07-15T05:53:21;18.90;95.80
851;DHT22;412;51.400;7.480;2022-07-15T05:55:48;18.80;95.70
851;DHT22;412;51.400;7.480;2022-07-15T05:58:13;18.80;95.60
851;DHT22;412;51.400;7.480;2022-07-15T06:00:39;18.80;95.60
851;DHT22;412;51.400;7.480;2022-07-15T06:03:05;18.80;95.80
851;DHT22;412;51.400;7.480;2022-07-15T06:05:31;18.80;95.40
851;DHT22;412;51.400;7.480;2022-07-15T06:07:57;18.80;95.30
851;DHT22;412;51.400;7.480;2022-07-15T06:10:23;18.90;95.80
851;DHT22;412;51.400;7.480;2022-07-15T06:12:49;18.80;95.00
851;DHT22;412;51.400;7.480;2022-07-15T06:15:19;18.80;94.60
851;DHT22;412;51.400;7.480;2022-07-15T06:17:45;18.80;94.90
851;DHT22;412;51.400;7.480;2022-07-15T06:20:11;18.80;95.10
851;DHT22;412;51.400;7.480;2022-07-15T06:22:37;18.90;96.20
851;DHT22;412;51.400;7.480;2022-07-15T06:25:04;18.90;95.00
851;DHT22;412;51.400;7.480;2022-07-15T06:27:30;18.90;94.40
851;DHT22;412;51.400;7.480;2022-07-15T06:29:57;18.90;94.70
851;DHT22;412;51.400;7.480;2022-07-15T06:32:25;18.90;94.30
851;DHT22;412;51.400;7.480;2022-07-15T06:34:51;19.00;94.00
851;DHT22;412;51.400;7.480;2022-07-15T06:37:17;19.00;94.50
851;DHT22;412;51.400;7.480;2022-07-15T06:39:43;19.00;94.10
851;DHT22;412;51.400;7.480;2022-07-15T06:42:09;19.00;94.20
851;DHT22;412;51.400;7.480;2022-07-15T06:44:35;19.00;93.80
851;DHT22;412;51.400;7.480;2022-07-15T06:47:01;19.00;93.60
851;DHT22;412;51.400;7.480;2022-07-15T06:49:28;19.10;93.70
851;DHT22;412;51.400;7.480;2022-07-15T06:51:54;19.10;93.70
851;DHT22;412;51.400;7.480;2022-07-15T06:54:20;19.10;93.60
851;DHT22;412;51.400;7.480;2022-07-15T06:56:46;19.20;93.20
851;DHT22;412;51.400;7.480;2022-07-15T06:59:12;19.20;92.90
851;DHT22;412;51.400;7.480;2022-07-15T07:01:37;19.20;92.20
851;DHT22;412;51.400;7.480;2022-07-15T07:04:03;19.20;92.00
851;DHT22;412;51.400;7.480;2022-07-15T07:06:29;19.20;91.20
851;DHT22;412;51.400;7.480;2022-07-15T07:08:55;19.10;91.10
851;DHT22;412;51.400;7.480;2022-07-15T07:11:21;19.20;92.10
851;DHT22;412;51.400;7.480;2022-07-15T07:13:48;19.30;92.40
851;DHT22;412;51.400;7.480;2022-07-15T07:16:14;19.50;92.70
851;DHT22;412;51.400;7.480;2022-07-15T07:18:39;19.80;90.80
851;DHT22;412;51.400;7.480;2022-07-15T07:21:05;20.10;93.10
851;DHT22;412;51.400;7.480;2022-07-15T07:23:31;20.40;97.20
851;DHT22;412;51.400;7.480;2022-07-15T07:25:58;20.90;99.60
851;DHT22;412;51.400;7.480;2022-07-15T07:28:24;21.00;89.30
851;DHT22;412;51.400;7.480;2022-07-15T07:30:50;20.90;82.50
851;DHT22;412;51.400;7.480;2022-07-15T07:33:18;20.80;80.90
851;DHT22;412;51.400;7.480;2022-07-15T07:35:44;20.70;80.00
851;DHT22;412;51.400;7.480;2022-07-15T07:38:10;20.70;81.10
851;DHT22;412;51.400;7.480;2022-07-15T07:40:38;20.60;84.20
851;DHT22;412;51.400;7.480;2022-07-15T07:43:04;20.50;84.00
851;DHT22;412;51.400;7.480;2022-07-15T07:45:30;20.50;85.30
851;DHT22;412;51.400;7.480;2022-07-15T07:47:56;20.40;83.40
851;DHT22;412;51.400;7.480;2022-07-15T07:50:22;20.40;85.30
851;DHT22;412;51.400;7.480;2022-07-15T07:52:48;20.40;85.00
851;DHT22;412;51.400;7.480;2022-07-15T07:55:14;20.40;84.20
851;DHT22;412;51.400;7.480;2022-07-15T07:57:51;20.50;83.10
851;DHT22;412;51.400;7.480;2022-07-15T08:00:17;20.40;83.00
851;DHT22;412;51.400;7.480;2022-07-15T08:02:44;20.40;84.90
851;DHT22;412;51.400;7.480;2022-07-15T08:05:10;20.50;83.80
851;DHT22;412;51.400;7.480;2022-07-15T08:07:36;20.50;85.10
851;DHT22;412;51.400;7.480;2022-07-15T08:10:03;20.60;83.30
851;DHT22;412;51.400;7.480;2022-07-15T08:12:29;20.60;82.90
851;DHT22;412;51.400;7.480;2022-07-15T08:14:55;20.60;83.30
851;DHT22;412;51.400;7.480;2022-07-15T08:17:22;20.70;83.00
851;DHT22;412;51.400;7.480;2022-07-15T08:19:47;20.70;82.90
851;DHT22;412;51.400;7.480;2022-07-15T08:22:13;20.70;83.50
851;DHT22;412;51.400;7.480;2022-07-15T08:24:40;20.80;81.60
851;DHT22;412;51.400;7.480;2022-07-15T08:27:06;20.80;80.10
851;DHT22;412;51.400;7.480;2022-07-15T08:29:31;20.80;80.30
851;DHT22;412;51.400;7.480;2022-07-15T08:31:57;20.90;80.30
851;DHT22;412;51.400;7.480;2022-07-15T08:34:23;21.00;81.10
851;DHT22;412;51.400;7.480;2022-07-15T08:36:49;21.00;80.10
851;DHT22;412;51.400;7.480;2022-07-15T08:39:15;21.00;81.00
851;DHT22;412;51.400;7.480;2022-07-15T08:41:41;21.00;82.30
851;DHT22;412;51.400;7.480;2022-07-15T08:44:07;21.00;79.80
851;DHT22;412;51.400;7.480;2022-07-15T08:46:34;20.90;78.20
851;DHT22;412;51.400;7.480;2022-07-15T08:49:10;20.90;79.90
851;DHT22;412;51.400;7.480;2022-07-15T08:51:40;20.90;79.90
851;DHT22;412;51.400;7.480;2022-07-15T08:54:06;20.90;80.30
851;DHT22;412;51.400;7.480;2022-07-15T08:56:33;20.90;79.50
851;DHT22;412;51.400;7.480;2022-07-15T08:59:04;20.80;78.70
851;DHT22;412;51.400;7.480;2022-07-15T09:01:30;20.80;81.20
851;DHT22;412;51.400;7.480;2022-07-15T09:03:57;20.70;83.60
851;DHT22;412;51.400;7.480;2022-07-15T09:06:36;20.70;82.30
851;DHT22;412;51.400;7.480;2022-07-15T09:09:24;20.70;85.40
851;DHT22;412;51.400;7.480;2022-07-15T09:12:03;20.80;81.40
851;DHT22;412;51.400;7.480;2022-07-15T09:14:30;20.80;83.00
851;DHT22;412;51.400;7.480;2022-07-15T09:19:57;20.80;83.60
851;DHT22;412;51.400;7.480;2022-07-15T09:22:26;20.80;80.70
851;DHT22;412;51.400;7.480;2022-07-15T09:25:07;20.90;82.70
851;DHT22;412;51.400;7.480;2022-07-15T09:27:36;21.20;88.30
851;DHT22;412;51.400;7.480;2022-07-15T09:33:13;21.70;81.10
851;DHT22;412;51.400;7.480;2022-07-15T09:36:04;21.80;77.50
851;DHT22;412;51.400;7.480;2022-07-15T09:41:09;21.80;78.50
851;DHT22;412;51.400;7.480;2022-07-15T09:43:50;21.70;77.40
851;DHT22;412;51.400;7.480;2022-07-15T09:46:48;21.70;79.60
851;DHT22;412;51.400;7.480;2022-07-15T09:52:00;21.60;80.70
851;DHT22;412;51.400;7.480;2022-07-15T09:54:29;21.60;80.80
851;DHT22;412;51.400;7.480;2022-07-15T09:56:59;21.50;82.00
851;DHT22;412;51.400;7.480;2022-07-15T09:59:26;21.50;81.30
851;DHT22;412;51.400;7.480;2022-07-15T10:01:53;21.50;78.80
851;DHT22;412;51.400;7.480;2022-07-15T10:04:23;21.40;80.00
851;DHT22;412;51.400;7.480;2022-07-15T10:06:54;21.50;81.20
851;DHT22;412;51.400;7.480;2022-07-15T10:09:28;21.60;82.10
851;DHT22;412;51.400;7.480;2022-07-15T10:12:14;21.90;83.50
851;DHT22;412;51.400;7.480;2022-07-15T10:25:32;22.20;90.00
851;DHT22;412;51.400;7.480;2022-07-15T10:31:21;22.40;89.00
851;DHT22;412;51.400;7.480;2022-07-15T10:36:39;22.80;83.50
851;DHT22;412;51.400;7.480;2022-07-15T10:39:05;23.10;82.20
851;DHT22;412;51.400;7.480;2022-07-15T10:41:55;23.30;80.60
851;DHT22;412;51.400;7.480;2022-07-15T10:44:28;23.70;77.70
851;DHT22;412;51.400;7.480;2022-07-15T10:47:30;23.80;79.30
851;DHT22;412;51.400;7.480;2022-07-15T10:49:56;23.80;77.40
851;DHT22;412;51.400;7.480;2022-07-15T10:52:29;23.80;72.60
851;DHT22;412;51.400;7.480;2022-07-15T11:03:08;23.60;70.20
851;DHT22;412;51.400;7.480;2022-07-15T11:13:45;23.20;71.20
851;DHT22;412;51.400;7.480;2022-07-15T11:16:16;23.10;71.30
851;DHT22;412;51.400;7.480;2022-07-15T11:18:46;23.20;79.30
851;DHT22;412;51.400;7.480;2022-07-15T11:21:12;23.20;72.40
851;DHT22;412;51.400;7.480;2022-07-15T11:23:39;23.20;75.50
851;DHT22;412;51.400;7.480;2022-07-15T11:26:04;23.10;77.40
851;DHT22;412;51.400;7.480;2022-07-15T11:28:30;23.10;75.90
851;DHT22;412;51.400;7.480;2022-07-15T11:30:56;23.10;73.10
851;DHT22;412;51.400;7.480;2022-07-15T11:33:24;23.10;71.50
851;DHT22;412;51.400;7.480;2022-07-15T11:36:00;23.00;73.00
851;DHT22;412;51.400;7.480;2022-07-15T11:38:29;23.00;73.60
851;DHT22;412;51.400;7.480;2022-07-15T11:40:58;23.00;76.40
851;DHT22;412;51.400;7.480;2022-07-15T11:43:43;23.00;74.40
851;DHT22;412;51.400;7.480;2022-07-15T11:46:29;22.90;74.60
851;DHT22;412;51.400;7.480;2022-07-15T11:48:57;22.90;75.10
851;DHT22;412;51.400;7.480;2022-07-15T11:51:25;22.90;76.80
851;DHT22;412;51.400;7.480;2022-07-15T11:53:55;23.10;83.60
851;DHT22;412;51.400;7.480;2022-07-15T11:56:21;23.30;79.40
851;DHT22;412;51.400;7.480;2022-07-15T11:58:53;23.50;79.80
851;DHT22;412;51.400;7.480;2022-07-15T12:01:25;23.60;74.80
851;DHT22;412;51.400;7.480;2022-07-15T12:03:55;23.80;76.00
851;DHT22;412;51.400;7.480;2022-07-15T12:06:32;23.90;75.20
851;DHT22;412;51.400;7.480;2022-07-15T12:09:00;23.90;73.40
851;DHT22;412;51.400;7.480;2022-07-15T12:11:35;23.90;74.40
851;DHT22;412;51.400;7.480;2022-07-15T12:14:07;23.80;77.70
851;DHT22;412;51.400;7.480;2022-07-15T12:19:12;23.80;72.10
851;DHT22;412;51.400;7.480;2022-07-15T12:21:39;23.80;72.40
851;DHT22;412;51.400;7.480;2022-07-15T12:26:40;23.70;74.10
851;DHT22;412;51.400;7.480;2022-07-15T12:29:08;23.70;73.70
851;DHT22;412;51.400;7.480;2022-07-15T12:31:35;23.70;72.90
851;DHT22;412;51.400;7.480;2022-07-15T12:34:03;23.60;73.20
851;DHT22;412;51.400;7.480;2022-07-15T12:36:33;23.60;73.20
851;DHT22;412;51.400;7.480;2022-07-15T12:41:35;23.50;75.00
851;DHT22;412;51.400;7.480;2022-07-15T12:44:03;23.40;74.20
851;DHT22;412;51.400;7.480;2022-07-15T12:46:55;23.40;72.60
851;DHT22;412;51.400;7.480;2022-07-15T12:52:25;23.40;74.30
851;DHT22;412;51.400;7.480;2022-07-15T12:54:55;23.50;74.90
851;DHT22;412;51.400;7.480;2022-07-15T12:57:26;23.60;74.30
851;DHT22;412;51.400;7.480;2022-07-15T12:59:58;23.60;69.60
851;DHT22;412;51.400;7.480;2022-07-15T13:02:25;23.50;68.40
851;DHT22;412;51.400;7.480;2022-07-15T13:04:53;23.50;70.10
851;DHT22;412;51.400;7.480;2022-07-15T13:07:19;23.40;70.30
851;DHT22;412;51.400;7.480;2022-07-15T13:09:45;23.20;71.00
851;DHT22;412;51.400;7.480;2022-07-15T13:12:12;23.20;70.30
851;DHT22;412;51.400;7.480;2022-07-15T13:14:39;23.10;68.60
851;DHT22;412;51.400;7.480;2022-07-15T13:17:05;23.10;70.50
851;DHT22;412;51.400;7.480;2022-07-15T13:19:32;23.00;70.90
851;DHT22;412;51.400;7.480;2022-07-15T13:22:01;23.00;70.00
851;DHT22;412;51.400;7.480;2022-07-15T13:24:28;23.20;72.60
851;DHT22;412;51.400;7.480;2022-07-15T13:26:54;23.20;69.20
851;DHT22;412;51.400;7.480;2022-07-15T13:29:20;23.30;69.60
851;DHT22;412;51.400;7.480;2022-07-15T13:31:45;23.30;69.30
851;DHT22;412;51.400;7.480;2022-07-15T13:34:13;23.40;68.90
851;DHT22;412;51.400;7.480;2022-07-15T13:36:39;23.30;67.90
851;DHT22;412;51.400;7.480;2022-07-15T13:39:07;23.30;70.20
851;DHT22;412;51.400;7.480;2022-07-15T13:41:33;23.20;69.70
851;DHT22;412;51.400;7.480;2022-07-15T13:43:59;23.20;68.80
851;DHT22;412;51.400;7.480;2022-07-15T13:46:24;23.20;69.50
851;DHT22;412;51.400;7.480;2022-07-15T13:48:50;23.20;69.10
851;DHT22;412;51.400;7.480;2022-07-15T13:51:16;23.20;72.30
851;DHT22;412;51.400;7.480;2022-07-15T13:53:51;23.20;71.00
851;DHT22;412;51.400;7.480;2022-07-15T13:56:18;23.10;69.70
851;DHT22;412;51.400;7.480;2022-07-15T13:58:44;23.10;68.70
851;DHT22;412;51.400;7.480;2022-07-15T14:01:10;23.10;68.70
851;DHT22;412;51.400;7.480;2022-07-15T14:03:36;23.00;66.90
851;DHT22;412;51.400;7.480;2022-07-15T14:06:02;22.90;64.20
851;DHT22;412;51.400;7.480;2022-07-15T14:08:29;22.80;65.70
851;DHT22;412;51.400;7.480;2022-07-15T14:10:54;22.90;67.70
851;DHT22;412;51.400;7.480;2022-07-15T14:13:20;22.90;69.60
851;DHT22;412;51.400;7.480;2022-07-15T14:15:46;22.90;71.60
851;DHT22;412;51.400;7.480;2022-07-15T14:18:12;23.00;71.10
851;DHT22;412;51.400;7.480;2022-07-15T14:20:37;23.10;68.70
851;DHT22;412;51.400;7.480;2022-07-15T14:23:04;23.20;68.60
851;DHT22;412;51.400;7.480;2022-07-15T14:25:29;23.30;66.90
851;DHT22;412;51.400;7.480;2022-07-15T14:27:56;23.30;68.60
851;DHT22;412;51.400;7.480;2022-07-15T14:30:22;23.30;66.00
851;DHT22;412;51.400;7.480;2022-07-15T14:32:48;23.20;65.50
851;DHT22;412;51.400;7.480;2022-07-15T14:35:14;23.30;68.10
851;DHT22;412;51.400;7.480;2022-07-15T14:37:40;23.40;72.60
851;DHT22;412;51.400;7.480;2022-07-15T14:40:07;23.40;68.50
851;DHT22;412;51.400;7.480;2022-07-15T14:42:33;23.50;64.30
851;DHT22;412;51.400;7.480;2022-07-15T14:44:59;23.40;66.20
851;DHT22;412;51.400;7.480;2022-07-15T14:47:25;23.30;64.10
851;DHT22;412;51.400;7.480;2022-07-15T14:49:51;23.30;63.90
851;DHT22;412;51.400;7.480;2022-07-15T14:52:17;23.30;62.40
851;DHT22;412;51.400;7.480;2022-07-15T14:54:42;23.30;63.10
851;DHT22;412;51.400;7.480;2022-07-15T14:57:08;23.20;66.10
851;DHT22;412;51.400;7.480;2022-07-15T14:59:34;23.30;68.60
851;DHT22;412;51.400;7.480;2022-07-15T15:02:06;23.20;72.60
851;DHT22;412;51.400;7.480;2022-07-15T15:04:32;23.20;68.40
851;DHT22;412;51.400;7.480;2022-07-15T15:06:58;23.30;68.80
851;DHT22;412;51.400;7.480;2022-07-15T15:09:24;23.30;66.30
851;DHT22;412;51.400;7.480;2022-07-15T15:11:50;23.40;66.20
851;DHT22;412;51.400;7.480;2022-07-15T15:14:18;23.40;64.90
851;DHT22;412;51.400;7.480;2022-07-15T15:16:44;23.30;64.20
851;DHT22;412;51.400;7.480;2022-07-15T15:19:10;23.30;64.50
851;DHT22;412;51.400;7.480;2022-07-15T15:21:35;23.30;63.20
851;DHT22;412;51.400;7.480;2022-07-15T15:24:02;23.30;63.30
851;DHT22;412;51.400;7.480;2022-07-15T15:26:28;23.30;64.70
851;DHT22;412;51.400;7.480;2022-07-15T15:28:55;23.20;61.80
851;DHT22;412;51.400;7.480;2022-07-15T15:31:22;23.30;63.40
851;DHT22;412;51.400;7.480;2022-07-15T15:33:49;23.30;62.70
851;DHT22;412;51.400;7.480;2022-07-15T15:36:15;23.30;64.30
851;DHT22;412;51.400;7.480;2022-07-15T15:38:41;23.40;67.10
851;DHT22;412;51.400;7.480;2022-07-15T15:41:07;23.40;66.90
851;DHT22;412;51.400;7.480;2022-07-15T15:43:33;23.40;65.10
851;DHT22;412;51.400;7.480;2022-07-15T15:45:59;23.40;64.30
851;DHT22;412;51.400;7.480;2022-07-15T15:48:25;23.40;63.40
851;DHT22;412;51.400;7.480;2022-07-15T15:50:52;23.40;64.00
851;DHT22;412;51.400;7.480;2022-07-15T15:53:18;23.50;63.60
851;DHT22;412;51.400;7.480;2022-07-15T15:55:43;23.40;61.80
851;DHT22;412;51.400;7.480;2022-07-15T15:58:09;23.30;63.80
851;DHT22;412;51.400;7.480;2022-07-15T16:00:35;23.30;65.90
851;DHT22;412;51.400;7.480;2022-07-15T16:03:02;23.40;64.10
851;DHT22;412;51.400;7.480;2022-07-15T16:05:27;23.30;62.00
851;DHT22;412;51.400;7.480;2022-07-15T16:07:53;23.30;64.00
851;DHT22;412;51.400;7.480;2022-07-15T16:10:19;23.30;63.80
851;DHT22;412;51.400;7.480;2022-07-15T16:12:45;23.30;62.70
851;DHT22;412;51.400;7.480;2022-07-15T16:15:11;23.20;61.30
851;DHT22;412;51.400;7.480;2022-07-15T16:17:37;23.20;63.00
851;DHT22;412;51.400;7.480;2022-07-15T16:20:04;23.20;62.70
851;DHT22;412;51.400;7.480;2022-07-15T16:22:30;23.10;63.80
851;DHT22;412;51.400;7.480;2022-07-15T16:25:14;23.10;62.80
851;DHT22;412;51.400;7.480;2022-07-15T16:27:40;23.10;63.70
851;DHT22;412;51.400;7.480;2022-07-15T16:30:07;23.00;63.30
851;DHT22;412;51.400;7.480;2022-07-15T16:32:33;23.00;61.50
851;DHT22;412;51.400;7.480;2022-07-15T16:34:59;22.90;61.70
851;DHT22;412;51.400;7.480;2022-07-15T16:37:28;22.90;59.90
851;DHT22;412;51.400;7.480;2022-07-15T16:39:53;22.90;62.90
851;DHT22;412;51.400;7.480;2022-07-15T16:42:19;22.80;63.00
851;DHT22;412;51.400;7.480;2022-07-15T16:44:45;22.80;63.10
851;DHT22;412;51.400;7.480;2022-07-15T16:47:11;22.70;61.00
851;DHT22;412;51.400;7.480;2022-07-15T16:49:37;22.70;62.00
851;DHT22;412;51.400;7.480;2022-07-15T16:52:05;22.70;63.30
851;DHT22;412;51.400;7.480;2022-07-15T16:54:34;22.60;63.20
851;DHT22;412;51.400;7.480;2022-07-15T16:57:00;22.60;62.80
851;DHT22;412;51.400;7.480;2022-07-15T16:59:26;22.60;63.30
851;DHT22;412;51.400;7.480;2022-07-15T17:01:52;22.60;63.80
851;DHT22;412;51.400;7.480;2022-07-15T17:04:20;22.60;63.20
851;DHT22;412;51.400;7.480;2022-07-15T17:06:47;22.60;63.20
851;DHT22;412;51.400;7.480;2022-07-15T17:09:12;22.60;65.80
851;DHT22;412;51.400;7.480;2022-07-15T17:11:38;22.60;65.30
851;DHT22;412;51.400;7.480;2022-07-15T17:14:04;22.60;66.00
851;DHT22;412;51.400;7.480;2022-07-15T17:16:30;22.60;64.80
851;DHT22;412;51.400;7.480;2022-07-15T17:18:56;22.70;67.00
851;DHT22;412;51.400;7.480;2022-07-15T17:21:22;22.70;67.00
851;DHT22;412;51.400;7.480;2022-07-15T17:23:48;22.60;66.40
851;DHT22;412;51.400;7.480;2022-07-15T17:26:13;22.70;66.10
851;DHT22;412;51.400;7.480;2022-07-15T17:28:39;22.70;66.00
851;DHT22;412;51.400;7.480;2022-07-15T17:31:05;22.70;67.80
851;DHT22;412;51.400;7.480;2022-07-15T17:33:32;22.70;67.80